Time;durP1;ratioP1;P1;durP2;ratioP2;P2;SDS_P1;SDS_P2;PMS_P1;PMS_P2;Temp;Humidity;BMP_temperature;BMP_pressure;BME280_temperature;BME280_humidity;BME280_pressure;Samples;Min_cycle;Max_cycle;Signal;HPM_P1;HPM_P2
2024/03/04 00:02:22;;;;;;;7.18;2.97;;;;;;;7.44;56.80;91528.34;2067939;69;20178;-77
2024/03/04 00:04:49;;;;;;;6.03;2.92;;;;;;;7.33;57.65;91529.91;2068073;69;20267;-77
2024/03/04 00:07:14;;;;;;;4.15;2.60;;;;;;;7.28;57.85;91533.06;2071369;69;20145;-78
2024/03/04 00:09:40;;;;;;;8.10;3.15;;;;;;;6.96;58.70;91548.81;2071314;69;20244;-78
2024/03/04 00:12:06;;;;;;;7.80;3.22;;;;;;;7.14;57.96;91539.34;2071137;69;20144;-78
2024/03/04 00:14:32;;;;;;;6.05;2.90;;;;;;;7.11;57.74;91537.09;2071428;69;20142;-77
2024/03/04 00:16:58;;;;;;;5.68;2.88;;;;;;;6.95;58.37;91541.78;2065233;69;20216;-77
2024/03/04 00:19:23;;;;;;;10.13;3.20;;;;;;;6.77;58.95;91538.69;2066429;69;20511;-78
2024/03/04 00:21:49;;;;;;;7.95;2.97;;;;;;;6.88;59.16;91537.94;2067860;69;20183;-78
2024/03/04 00:24:15;;;;;;;6.07;2.83;;;;;;;7.02;58.52;91541.50;2071382;69;20160;-78
2024/03/04 00:26:41;;;;;;;6.30;3.10;;;;;;;7.05;58.55;91542.34;2065204;69;20147;-78
2024/03/04 00:29:07;;;;;;;5.40;2.58;;;;;;;7.01;58.09;91544.91;2068133;69;20148;-79
2024/03/04 00:31:33;;;;;;;6.30;3.00;;;;;;;6.97;59.12;91553.09;2071543;69;20145;-78
2024/03/04 00:33:58;;;;;;;8.23;2.97;;;;;;;6.86;58.45;91546.19;2071227;69;20191;-78
2024/03/04 00:36:26;;;;;;;5.78;2.70;;;;;;;6.86;58.73;91530.13;2065418;69;20144;-78
2024/03/04 00:38:54;;;;;;;4.85;2.90;;;;;;;6.93;58.88;91545.19;2071220;69;20148;-78
2024/03/04 00:41:24;;;;;;;5.38;2.63;;;;;;;6.97;57.97;91547.50;2071221;69;20152;-78
2024/03/04 00:43:50;;;;;;;7.88;2.45;;;;;;;6.62;58.64;91515.53;2070813;69;20507;-78
2024/03/04 00:46:16;;;;;;;4.45;1.90;;;;;;;6.86;59.32;91546.19;2068072;69;20191;-78
2024/03/04 00:48:45;;;;;;;6.25;2.05;;;;;;;6.75;59.57;91544.91;2071311;69;20144;-78
2024/03/04 00:51:14;;;;;;;4.60;2.58;;;;;;;6.74;59.40;91543.47;2071434;69;20210;-78
2024/03/04 00:53:40;;;;;;;4.78;2.92;;;;;;;6.74;58.67;91551.13;2071291;69;20148;-78
2024/03/04 00:56:07;;;;;;;5.80;2.85;;;;;;;6.47;59.56;91538.44;2071403;69;20585;-79
2024/03/04 00:58:35;;;;;;;6.70;3.00;;;;;;;6.07;60.89;91531.97;2071443;69;20144;-79
2024/03/04 01:01:01;;;;;;;5.43;2.78;;;;;;;6.45;60.54;91538.31;2071399;69;20132;-79
2024/03/04 01:03:27;;;;;;;3.33;2.42;;;;;;;6.44;60.58;91536.88;2071129;69;20168;-79
2024/03/04 01:05:52;;;;;;;6.22;2.60;;;;;;;6.39;61.05;91551.97;2071415;69;20171;-80
2024/03/04 01:08:19;;;;;;;7.72;2.70;;;;;;;6.39;61.00;91554.75;2071239;69;20262;-79
2024/03/04 01:10:45;;;;;;;4.88;2.13;;;;;;;6.44;60.26;91559.25;2071299;69;20556;-78
2024/03/04 01:13:11;;;;;;;9.20;2.78;;;;;;;6.31;60.30;91546.63;2071377;69;20148;-79
2024/03/04 01:15:37;;;;;;;6.30;2.63;;;;;;;6.46;60.00;91555.81;2071387;69;20137;-79
2024/03/04 01:18:04;;;;;;;10.13;2.85;;;;;;;6.37;60.30;91554.66;2071329;69;20166;-79
2024/03/04 01:20:32;;;;;;;4.50;2.67;;;;;;;6.39;59.66;91559.63;2071311;69;20196;-78
2024/03/04 01:22:58;;;;;;;4.90;2.45;;;;;;;6.40;60.52;91559.00;2067655;69;20275;-79
2024/03/04 01:25:25;;;;;;;5.15;2.90;;;;;;;6.38;59.26;91544.19;2071233;69;20136;-79
2024/03/04 01:27:51;;;;;;;2.90;1.90;;;;;;;6.43;59.06;91549.41;2071761;69;20155;-79
2024/03/04 01:30:17;;;;;;;7.88;2.20;;;;;;;6.39;59.56;91538.00;2071722;69;20144;-78
2024/03/04 01:32:44;;;;;;;5.70;2.20;;;;;;;6.36;59.63;91542.00;2071514;69;20160;-79
2024/03/04 01:35:11;;;;;;;5.38;2.20;;;;;;;5.97;60.22;91534.19;2071662;69;20156;-78
2024/03/04 01:37:41;;;;;;;6.95;2.47;;;;;;;6.22;60.11;91525.13;2071718;69;20172;-79
2024/03/04 01:40:07;;;;;;;7.30;2.55;;;;;;;6.35;59.33;91532.16;2071792;69;20172;-79
2024/03/04 01:42:38;;;;;;;5.18;2.10;;;;;;;6.38;59.69;91533.03;2071585;69;20231;-78
2024/03/04 01:45:15;;;;;;;9.13;2.25;;;;;;;6.43;60.18;91531.91;2068359;69;20156;-79
2024/03/04 01:47:42;;;;;;;5.45;2.33;;;;;;;6.34;59.72;91539.09;2071721;69;20136;-79
2024/03/04 01:50:10;;;;;;;4.50;2.35;;;;;;;6.45;59.42;91534.81;2071694;69;20282;-79
2024/03/04 01:52:36;;;;;;;4.45;2.28;;;;;;;6.18;60.46;91521.38;2071797;69;20177;-79
2024/03/04 01:55:02;;;;;;;3.95;1.92;;;;;;;6.38;58.27;91519.03;2071655;69;20252;-79
2024/03/04 01:57:28;;;;;;;3.65;1.80;;;;;;;6.54;56.38;91533.91;2071713;69;20140;-79
2024/03/04 01:59:54;;;;;;;8.45;2.03;;;;;;;6.44;58.33;91531.28;2071772;69;20152;-78
2024/03/04 02:02:20;;;;;;;2.95;1.85;;;;;;;6.46;58.26;91539.81;2071529;69;20243;-79
2024/03/04 02:04:46;;;;;;;4.47;2.20;;;;;;;6.40;58.33;91541.50;2071750;69;20164;-79
2024/03/04 02:07:14;;;;;;;4.40;2.20;;;;;;;6.43;58.23;91543.81;2068385;69;20151;-79
2024/03/04 02:09:42;;;;;;;3.85;2.45;;;;;;;6.46;57.82;91541.84;2071742;69;20129;-79
2024/03/04 02:12:08;;;;;;;6.32;2.03;;;;;;;6.36;58.60;91539.94;2071601;69;20143;-79
2024/03/04 02:14:35;;;;;;;6.70;1.55;;;;;;;6.49;56.63;91532.97;2068465;69;20565;-79
2024/03/04 02:17:00;;;;;;;6.05;1.52;;;;;;;6.48;56.10;91520.34;2071719;69;20160;-79
2024/03/04 02:19:26;;;;;;;8.88;2.40;;;;;;;6.28;57.38;91539.47;2071573;69;20137;-78
2024/03/04 02:21:57;;;;;;;6.20;1.80;;;;;;;6.45;58.04;91543.91;2071669;69;20155;-78
2024/03/04 02:24:23;;;;;;;3.75;1.77;;;;;;;6.37;58.11;91546.28;2068396;69;20136;-79
2024/03/04 02:26:50;;;;;;;6.32;2.25;;;;;;;6.54;56.84;91545.09;2068377;69;20231;-78
2024/03/04 02:29:18;;;;;;;11.60;2.00;;;;;;;6.57;57.80;91555.81;2071466;69;20191;-79
2024/03/04 02:31:44;;;;;;;5.53;2.20;;;;;;;6.63;57.39;91555.41;2065366;69;20885;-78
2024/03/04 02:34:12;;;;;;;5.40;1.88;;;;;;;6.31;57.82;91560.59;2071723;69;20189;-78
2024/03/04 02:36:40;;;;;;;3.60;2.08;;;;;;;6.56;57.22;91564.81;2071252;69;20156;-79
2024/03/04 02:39:10;;;;;;;7.75;2.00;;;;;;;6.61;57.68;91566.50;2071231;69;20156;-78
2024/03/04 02:41:39;;;;;;;4.82;1.75;;;;;;;6.55;57.92;91550.09;2071636;69;20159;-78
2024/03/04 02:44:06;;;;;;;6.35;1.95;;;;;;;6.66;57.64;91557.00;2071458;69;20156;-78
2024/03/04 02:46:31;;;;;;;4.00;1.60;;;;;;;6.69;56.70;91555.00;2071837;69;20164;-78
2024/03/04 02:48:58;;;;;;;3.90;1.88;;;;;;;6.55;58.03;91561.28;2068106;69;20179;-79
2024/03/04 02:51:24;;;;;;;6.07;2.25;;;;;;;6.21;59.37;91564.88;2071422;69;20148;-79
2024/03/04 02:53:50;;;;;;;5.40;1.92;;;;;;;6.40;58.50;91550.63;2067703;69;20146;-79
2024/03/04 02:56:16;;;;;;;7.40;2.20;;;;;;;6.56;58.24;91570.41;2068374;69;20152;-78
2024/03/04 02:58:43;;;;;;;3.60;1.80;;;;;;;6.54;59.15;91573.78;2071240;69;20637;-78
2024/03/04 03:01:09;;;;;;;4.63;2.17;;;;;;;6.59;58.83;91572.69;2067993;69;20176;-79
2024/03/04 03:03:35;;;;;;;6.70;2.00;;;;;;;6.59;58.51;91578.28;2071300;69;20168;-79
2024/03/04 03:06:04;;;;;;;7.78;2.30;;;;;;;6.70;57.74;91587.25;2071328;69;20159;-77
2024/03/04 03:08:29;;;;;;;3.75;1.90;;;;;;;6.06;58.97;91591.28;2064811;69;20170;-77
2024/03/04 03:10:56;;;;;;;4.63;2.13;;;;;;;6.38;58.61;91600.09;2067954;69;20627;-79
2024/03/04 03:13:23;;;;;;;4.43;2.22;;;;;;;6.36;58.01;91600.69;2071421;69;20174;-78
2024/03/04 03:15:49;;;;;;;6.18;2.28;;;;;;;6.49;58.62;91588.88;2071433;69;20152;-78
2024/03/04 03:18:17;;;;;;;4.40;2.00;;;;;;;6.47;58.44;91588.78;2067917;69;20145;-79
2024/03/04 03:20:43;;;;;;;5.72;2.17;;;;;;;6.56;58.16;91610.28;2071365;69;20151;-78
2024/03/04 03:23:09;;;;;;;6.07;2.25;;;;;;;6.53;59.34;91607.97;2071291;69;20141;-78
2024/03/04 03:25:40;;;;;;;5.65;2.17;;;;;;;6.51;59.19;91616.97;2067823;69;20193;-78
2024/03/04 03:28:07;;;;;;;6.50;2.10;;;;;;;6.60;58.24;91612.59;2071116;69;20218;-79
2024/03/04 03:30:32;;;;;;;7.10;1.92;;;;;;;6.63;57.86;91633.72;2071489;69;20148;-78
2024/03/04 03:32:58;;;;;;;5.10;1.92;;;;;;;6.67;57.99;91639.53;2071312;69;20148;-78
2024/03/04 03:35:23;;;;;;;4.25;1.85;;;;;;;6.75;58.14;91639.28;2067653;69;20804;-78
2024/03/04 03:37:51;;;;;;;4.82;2.33;;;;;;;6.66;57.64;91645.75;2071442;69;20171;-78
2024/03/04 03:40:17;;;;;;;3.80;1.67;;;;;;;6.65;57.63;91636.63;2071424;69;20136;-78
2024/03/04 03:42:42;;;;;;;6.53;2.20;;;;;;;6.43;57.95;91647.25;2071279;69;20159;-78
2024/03/04 03:45:31;;;;;;;5.13;2.55;;;;;;;6.42;59.31;91645.78;2071387;69;20511;-79
2024/03/04 03:48:00;;;;;;;9.05;2.10;;;;;;;6.45;59.79;91644.56;2071203;69;20223;-79
2024/03/04 03:50:25;;;;;;;6.80;1.80;;;;;;;6.63;58.87;91645.63;2071181;69;20198;-78
2024/03/04 03:52:51;;;;;;;4.63;2.25;;;;;;;6.70;58.60;91651.59;2071353;69;20219;-78
2024/03/04 03:55:16;;;;;;;5.63;2.17;;;;;;;6.16;60.93;91652.63;2071419;69;20155;-78
2024/03/04 03:57:43;;;;;;;5.95;2.10;;;;;;;6.49;60.19;91650.41;2071132;69;20155;-79
2024/03/04 04:00:10;;;;;;;6.13;2.13;;;;;;;6.60;60.06;91657.31;2071351;69;20187;-78
2024/03/04 04:02:38;;;;;;;5.70;2.30;;;;;;;6.59;59.89;91650.25;2071048;69;20227;-79
2024/03/04 04:05:04;;;;;;;6.47;2.40;;;;;;;6.61;60.18;91644.78;2067514;69;20140;-78
2024/03/04 04:07:30;;;;;;;7.22;2.38;;;;;;;6.65;60.56;91649.91;2071128;69;20607;-79
2024/03/04 04:09:55;;;;;;;6.13;2.20;;;;;;;6.61;60.61;91647.59;2071412;69;20183;-78
2024/03/04 04:12:21;;;;;;;5.28;2.10;;;;;;;6.68;59.79;91652.19;2071529;69;20547;-79
2024/03/04 04:14:46;;;;;;;8.57;2.03;;;;;;;6.67;59.80;91661.91;2071126;69;20592;-78
2024/03/04 04:17:15;;;;;;;10.43;3.80;;;;;;;6.23;61.65;91657.97;2071234;69;20148;-78
2024/03/04 04:19:40;;;;;;;9.18;3.17;;;;;;;6.44;61.03;91662.69;2068200;69;20203;-78
2024/03/04 04:22:06;;;;;;;7.85;3.42;;;;;;;6.50;61.20;91662.31;2068134;69;20199;-77
2024/03/04 04:24:32;;;;;;;12.40;3.67;;;;;;;6.52;61.05;91665.97;2071393;69;20196;-79
2024/03/04 04:26:57;;;;;;;9.30;4.43;;;;;;;6.43;61.48;91652.13;2071318;69;20136;-79
2024/03/04 04:29:23;;;;;;;11.98;4.25;;;;;;;6.50;60.67;91660.22;2071364;69;20708;-78
2024/03/04 04:31:49;;;;;;;9.15;3.70;;;;;;;6.60;60.60;91666.44;2071283;69;20137;-79
2024/03/04 04:34:14;;;;;;;10.57;3.13;;;;;;;6.66;59.84;91670.91;2071022;69;20136;-78
2024/03/04 04:36:50;;;;;;;7.05;3.35;;;;;;;6.17;61.16;91677.16;2067965;69;20600;-79
2024/03/04 04:39:17;;;;;;;9.63;3.03;;;;;;;6.02;63.04;91680.44;2071446;69;20168;-78
2024/03/04 04:41:43;;;;;;;7.97;2.90;;;;;;;6.37;61.62;91674.84;2071455;69;20597;-78
2024/03/04 04:44:10;;;;;;;8.40;3.25;;;;;;;6.47;61.43;91677.53;2071434;69;20538;-79
2024/03/04 04:46:39;;;;;;;6.05;3.08;;;;;;;6.40;60.99;91673.63;2068024;69;20218;-78
2024/03/04 04:49:05;;;;;;;7.32;3.00;;;;;;;6.39;61.28;91672.16;2071146;69;20136;-78
2024/03/04 04:51:31;;;;;;;9.02;3.35;;;;;;;6.51;61.55;91675.69;2068131;69;20619;-79
2024/03/04 04:53:57;;;;;;;7.53;3.20;;;;;;;6.62;60.65;91680.53;2071400;69;20588;-79
2024/03/04 04:56:24;;;;;;;9.77;3.75;;;;;;;6.43;61.15;91652.84;2071334;69;20160;-78
2024/03/04 04:58:50;;;;;;;8.65;3.40;;;;;;;6.59;60.41;91676.16;2071100;69;20152;-77
2024/03/04 05:01:28;;;;;;;7.80;3.40;;;;;;;6.64;60.85;91679.91;2071290;69;20221;-76
2024/03/04 05:03:54;;;;;;;10.80;2.95;;;;;;;6.63;60.81;91676.38;2071489;69;20151;-78
2024/03/04 05:06:21;;;;;;;8.27;3.45;;;;;;;5.72;64.02;91648.53;2071991;69;20152;-79
2024/03/04 05:08:48;;;;;;;9.55;3.17;;;;;;;5.93;64.13;91673.63;2068557;69;20508;-78
2024/03/04 05:11:15;;;;;;;5.85;3.05;;;;;;;6.16;63.21;91684.09;2071618;69;20298;-79
2024/03/04 05:13:41;;;;;;;8.77;2.97;;;;;;;6.31;62.83;91686.38;2072029;69;20231;-78
2024/03/04 05:16:08;;;;;;;8.98;3.15;;;;;;;6.39;62.20;91691.72;2071752;69;20510;-78
2024/03/04 05:18:35;;;;;;;6.28;3.13;;;;;;;6.41;62.84;91688.31;2067985;69;20628;-78
2024/03/04 05:24:49;;;;;;;8.20;3.50;;;;;;;6.10;62.39;91700.50;2071797;69;20621;-78
2024/03/04 05:27:15;;;;;;;8.35;3.38;;;;;;;6.07;63.24;91710.81;2068447;69;20140;-78
2024/03/04 05:29:41;;;;;;;10.05;3.42;;;;;;;6.22;62.51;91703.28;2071711;69;20225;-78
2024/03/04 05:32:07;;;;;;;7.35;3.13;;;;;;;6.33;62.65;91699.75;2068451;69;20145;-78
2024/03/04 05:34:33;;;;;;;7.45;3.13;;;;;;;6.30;62.59;91692.59;2068424;69;20132;-76
2024/03/04 05:36:58;;;;;;;8.75;3.35;;;;;;;6.48;61.33;91696.47;2071820;69;20184;-77
2024/03/04 05:39:24;;;;;;;10.55;4.47;;;;;;;6.59;60.54;91698.50;2071912;69;20168;-78
2024/03/04 05:41:50;;;;;;;7.13;3.90;;;;;;;6.52;60.98;91696.72;2071068;69;20195;-77
2024/03/04 05:44:16;;;;;;;11.45;4.50;;;;;;;6.49;61.64;91697.19;2065371;69;20160;-77
2024/03/04 05:46:44;;;;;;;9.23;4.63;;;;;;;6.49;62.00;91692.34;2071460;69;20147;-78
2024/03/04 05:49:11;;;;;;;10.18;4.40;;;;;;;6.42;61.98;91692.59;2071661;69;20202;-78
2024/03/04 05:51:40;;;;;;;7.82;4.70;;;;;;;6.45;62.84;91691.34;2068324;69;20215;-75
2024/03/04 05:54:07;;;;;;;19.75;7.10;;;;;;;6.49;62.11;91697.91;2068396;69;20164;-77
2024/03/04 05:56:33;;;;;;;9.88;6.60;;;;;;;6.49;62.35;91697.91;2071900;69;20156;-77
2024/03/04 05:58:58;;;;;;;12.73;5.85;;;;;;;6.51;62.31;91702.91;2071888;69;20140;-77
2024/03/04 06:01:25;;;;;;;12.85;5.72;;;;;;;6.36;63.30;91684.56;2071699;69;20251;-77
2024/03/04 06:03:51;;;;;;;12.65;5.45;;;;;;;6.50;62.39;91710.56;2071788;69;20144;-79
2024/03/04 06:06:17;;;;;;;15.18;6.38;;;;;;;6.46;62.53;91710.34;2071799;69;20144;-79
2024/03/04 06:08:43;;;;;;;9.70;5.68;;;;;;;6.56;62.18;91718.59;2068624;69;20144;-80
2024/03/04 06:11:09;;;;;;;8.90;4.90;;;;;;;6.56;61.95;91716.53;2068497;69;20160;-79
2024/03/04 06:13:34;;;;;;;16.45;5.63;;;;;;;6.36;62.88;91721.63;2071802;69;20607;-79
2024/03/04 06:16:00;;;;;;;11.55;4.97;;;;;;;6.60;61.71;91727.97;2071634;69;20148;-80
2024/03/04 06:18:26;;;;;;;9.77;4.60;;;;;;;6.62;62.25;91722.47;2071800;69;20172;-78
2024/03/04 06:20:52;;;;;;;12.57;4.53;;;;;;;6.33;62.45;91722.84;2068455;69;20128;-81
2024/03/04 06:23:19;;;;;;;11.13;4.68;;;;;;;6.54;62.31;91724.78;2068643;69;20229;-80
2024/03/04 06:25:44;;;;;;;9.60;4.60;;;;;;;6.46;62.70;91729.91;2071837;69;20145;-79
2024/03/04 06:28:11;;;;;;;9.80;4.47;;;;;;;6.61;62.08;91725.88;2071873;69;20144;-81
2024/03/04 06:30:36;;;;;;;14.93;5.70;;;;;;;6.69;62.25;91720.78;2071784;69;20155;-80
2024/03/04 06:33:02;;;;;;;12.63;6.85;;;;;;;6.76;62.28;91727.44;2068089;69;20159;-80
2024/03/04 06:35:27;;;;;;;18.23;7.90;;;;;;;6.75;61.64;91717.59;2071222;69;20515;-79
2024/03/04 06:37:53;;;;;;;19.08;9.05;;;;;;;6.87;61.60;91721.09;2070982;69;20148;-80
2024/03/04 06:40:19;;;;;;;16.00;7.78;;;;;;;6.79;62.01;91717.84;2071208;69;20148;-80
2024/03/04 06:42:44;;;;;;;19.10;8.02;;;;;;;6.96;61.76;91725.81;2067941;69;20588;-81
2024/03/04 06:45:10;;;;;;;16.10;7.20;;;;;;;7.06;61.61;91726.44;2071131;69;20152;-80
2024/03/04 06:47:36;;;;;;;13.90;6.70;;;;;;;7.16;60.99;91729.09;2071335;69;20227;-80
2024/03/04 06:50:02;;;;;;;10.82;5.68;;;;;;;7.19;60.33;91724.31;2068316;69;20156;-77
2024/03/04 06:52:27;;;;;;;15.05;5.43;;;;;;;6.99;60.28;91726.69;2071612;69;20153;-76
2024/03/04 06:54:53;;;;;;;13.07;5.72;;;;;;;7.06;60.44;91742.50;2071870;69;20152;-77
2024/03/04 06:57:19;;;;;;;14.27;6.82;;;;;;;7.21;60.31;91750.34;2068514;69;20171;-77
2024/03/04 06:59:44;;;;;;;14.25;6.63;;;;;;;7.39;60.61;91747.88;2068690;69;20562;-78
2024/03/04 07:02:10;;;;;;;10.85;5.50;;;;;;;7.49;59.98;91740.03;2071661;69;20140;-78
2024/03/04 07:04:36;;;;;;;17.73;6.88;;;;;;;7.28;60.36;91740.94;2071841;69;20245;-77
2024/03/04 07:07:01;;;;;;;19.25;7.10;;;;;;;7.52;62.82;91743.69;2068295;69;20136;-79
2024/03/04 07:09:27;;;;;;;11.38;5.90;;;;;;;7.65;62.43;91745.81;2071725;69;20155;-78
2024/03/04 07:11:54;;;;;;;21.25;6.25;;;;;;;7.82;60.85;91745.38;2071668;69;20213;-77
2024/03/04 07:14:19;;;;;;;19.88;6.53;;;;;;;7.96;60.22;91750.31;2071633;69;20156;-78
2024/03/04 07:16:45;;;;;;;10.57;5.32;;;;;;;7.89;60.24;91749.97;2068124;69;20535;-76
2024/03/04 07:19:11;;;;;;;12.68;4.88;;;;;;;7.75;59.64;91757.59;2071686;69;20208;-78
2024/03/04 07:21:36;;;;;;;16.70;4.90;;;;;;;7.56;60.24;91757.91;2071531;69;20152;-78
2024/03/04 07:24:02;;;;;;;18.38;4.25;;;;;;;7.57;60.18;91760.13;2071535;69;20141;-78
2024/03/04 07:26:28;;;;;;;10.30;4.07;;;;;;;7.68;59.41;91764.19;2071653;69;20174;-78
2024/03/04 07:28:54;;;;;;;12.05;4.45;;;;;;;7.67;59.26;91764.81;2071762;69;20143;-78
2024/03/04 07:31:20;;;;;;;14.55;4.40;;;;;;;7.68;59.11;91772.59;2073876;69;20198;-78
2024/03/04 07:33:46;;;;;;;16.15;4.95;;;;;;;7.53;60.16;91768.28;2075400;69;20163;-81
2024/03/04 07:36:13;;;;;;;17.55;6.60;;;;;;;7.26;61.31;91776.50;2072318;69;20140;-80
2024/03/04 07:38:39;;;;;;;20.30;5.80;;;;;;;7.34;60.97;91785.38;2071511;69;20137;-80
2024/03/04 07:41:05;;;;;;;17.65;5.22;;;;;;;7.35;61.47;91778.44;2068476;69;20144;-79
2024/03/04 07:43:30;;;;;;;10.32;5.13;;;;;;;7.38;61.77;91780.75;2071805;69;20149;-79
2024/03/04 07:45:56;;;;;;;23.77;7.32;;;;;;;7.37;61.66;91784.16;2071833;69;20167;-80
2024/03/04 07:48:22;;;;;;;17.27;5.72;;;;;;;7.32;61.67;91782.47;2071735;69;20224;-79
2024/03/04 07:50:48;;;;;;;11.82;6.07;;;;;;;7.38;61.42;91782.81;2071882;69;20162;-77
2024/03/04 07:53:13;;;;;;;18.23;7.97;;;;;;;6.74;62.71;91781.22;2071776;69;20560;-79
2024/03/04 07:55:39;;;;;;;17.90;8.20;;;;;;;7.21;61.39;91774.81;2071627;69;20265;-79
2024/03/04 07:58:04;;;;;;;19.15;8.63;;;;;;;7.31;62.24;91775.41;2071567;69;20251;-78
2024/03/04 08:00:30;;;;;;;21.48;10.60;;;;;;;7.35;61.75;91779.16;2071688;69;20149;-77
2024/03/04 08:02:55;;;;;;;23.75;9.60;;;;;;;7.36;61.91;91771.50;2071379;69;20175;-78
2024/03/04 08:05:21;;;;;;;16.15;8.00;;;;;;;7.33;61.66;91781.09;2071616;69;20239;-77
2024/03/04 08:07:47;;;;;;;21.33;9.52;;;;;;;6.86;62.34;91783.97;2071662;69;20159;-78
2024/03/04 08:10:13;;;;;;;21.30;9.05;;;;;;;6.97;62.62;91783.25;2068620;69;20159;-78
2024/03/04 08:12:39;;;;;;;18.58;8.75;;;;;;;7.25;62.12;91795.38;2071628;69;20550;-79
2024/03/04 08:15:07;;;;;;;18.67;9.00;;;;;;;7.66;62.66;91794.19;2068176;69;20140;-78
2024/03/04 08:17:38;;;;;;;20.70;8.48;;;;;;;8.02;62.59;91787.81;2071487;69;20230;-78
2024/03/04 08:20:05;;;;;;;16.73;9.15;;;;;;;8.57;61.87;91795.72;2071537;69;20132;-78
2024/03/04 08:22:32;;;;;;;19.40;7.95;;;;;;;8.84;60.55;91795.00;2071537;69;20188;-79
2024/03/04 08:24:58;;;;;;;19.65;7.60;;;;;;;9.23;59.70;91789.31;2071604;69;20608;-79
2024/03/04 08:27:23;;;;;;;15.20;5.72;;;;;;;9.24;58.14;91790.75;2071552;69;20136;-79
2024/03/04 08:29:49;;;;;;;13.27;5.40;;;;;;;9.66;57.45;91785.81;2071752;69;20144;-79
2024/03/04 08:32:15;;;;;;;17.08;6.57;;;;;;;9.89;56.26;91785.53;2071446;69;20148;-79
2024/03/04 08:38:28;;;;;;;20.50;8.45;;;;;;;10.33;54.80;91786.25;2072109;69;20135;-79
2024/03/04 08:40:53;;;;;;;14.30;6.68;;;;;;;10.55;54.85;91803.44;2072057;69;20527;-80
2024/03/04 08:43:19;;;;;;;14.52;6.70;;;;;;;11.20;53.48;91783.84;2071865;69;20536;-81
2024/03/04 08:45:44;;;;;;;15.57;5.88;;;;;;;11.70;52.34;91792.28;2072055;69;20194;-80
2024/03/04 08:48:10;;;;;;;12.65;6.00;;;;;;;12.05;51.96;91793.72;2071978;69;20524;-82
2024/03/04 08:50:37;;;;;;;14.15;7.28;;;;;;;12.12;51.49;91799.00;2071883;69;20543;-81
2024/03/04 08:53:03;;;;;;;21.20;7.28;;;;;;;12.21;51.19;91797.22;2071902;69;20621;-81
2024/03/04 08:55:29;;;;;;;12.35;4.75;;;;;;;12.49;49.42;91796.91;2071815;69;20239;-80
2024/03/04 09:01:41;;;;;;;5.53;2.70;;;;;;;13.03;46.31;91784.13;2072044;69;20182;-81
2024/03/04 09:04:07;;;;;;;12.27;3.28;;;;;;;13.75;45.03;91801.59;2072171;69;20148;-81
2024/03/04 09:06:33;;;;;;;7.57;3.25;;;;;;;13.85;44.70;91812.53;2072145;69;20140;-81
2024/03/04 09:08:58;;;;;;;9.77;3.50;;;;;;;14.47;44.59;91808.22;2065964;69;20589;-81
2024/03/04 09:11:25;;;;;;;9.70;3.63;;;;;;;14.47;43.25;91801.81;2068426;69;20164;-81
2024/03/04 09:13:52;;;;;;;10.13;3.63;;;;;;;14.73;44.14;91804.81;2072256;69;20249;-81
2024/03/04 09:16:17;;;;;;;11.05;3.58;;;;;;;14.99;44.18;91805.63;2072520;69;20163;-81
2024/03/04 09:18:43;;;;;;;9.07;3.17;;;;;;;15.18;43.02;91815.38;2072446;69;20180;-81
2024/03/04 09:21:09;;;;;;;6.85;3.25;;;;;;;15.50;42.42;91821.28;2071788;69;20140;-80
2024/03/04 09:23:34;;;;;;;8.77;2.80;;;;;;;15.83;42.10;91813.69;2076716;69;20136;-81
2024/03/04 09:26:00;;;;;;;4.32;2.45;;;;;;;16.01;41.31;91813.47;2073561;69;20217;-80
2024/03/04 09:28:31;;;;;;;7.22;2.53;;;;;;;15.79;40.81;91807.91;2072200;69;20137;-81
2024/03/04 09:30:56;;;;;;;4.20;2.47;;;;;;;16.37;40.77;91815.81;2068694;69;20238;-81
2024/03/04 09:33:22;;;;;;;8.45;2.63;;;;;;;16.39;40.74;91802.38;2071740;69;20156;-82
2024/03/04 09:35:47;;;;;;;5.32;2.42;;;;;;;17.15;39.16;91804.91;2071801;69;20148;-81
2024/03/04 09:38:14;;;;;;;5.55;2.30;;;;;;;17.53;39.59;91807.84;2071842;69;20202;-82
2024/03/04 09:40:44;;;;;;;5.07;2.30;;;;;;;17.26;38.52;91808.69;2065808;69;20171;-81
2024/03/04 09:43:12;;;;;;;4.15;1.67;;;;;;;17.68;37.74;91813.84;2071935;69;20155;-81
2024/03/04 09:45:41;;;;;;;9.93;2.00;;;;;;;17.67;37.02;91815.25;2071798;69;20158;-81
2024/03/04 09:48:11;;;;;;;6.35;1.83;;;;;;;17.44;36.68;91811.94;2068452;69;20672;-78
2024/03/04 09:50:37;;;;;;;5.93;1.85;;;;;;;18.18;35.64;91805.59;2072072;69;20645;-79
2024/03/04 09:53:02;;;;;;;7.75;1.88;;;;;;;18.72;35.84;91810.13;2072028;69;20144;-79
2024/03/04 09:55:28;;;;;;;3.65;1.67;;;;;;;18.87;35.63;91816.75;2068412;69;20244;-80
2024/03/04 09:57:55;;;;;;;7.32;1.70;;;;;;;19.35;33.63;91808.22;2071748;69;20202;-79
2024/03/04 10:00:22;;;;;;;7.03;1.77;;;;;;;19.60;33.86;91806.44;2071888;69;20160;-80
2024/03/04 10:02:49;;;;;;;9.35;1.75;;;;;;;18.70;33.45;91802.25;2071868;69;20139;-80
2024/03/04 10:05:15;;;;;;;6.75;1.55;;;;;;;19.22;33.96;91800.91;2071970;69;20164;-81
2024/03/04 10:07:41;;;;;;;9.82;1.60;;;;;;;19.23;32.23;91790.94;2071725;69;20180;-81
2024/03/04 10:10:10;;;;;;;4.72;1.63;;;;;;;20.22;32.92;91788.63;2071893;69;20148;-80
2024/03/04 10:12:36;;;;;;;6.57;1.92;;;;;;;20.14;34.16;91799.97;2071882;69;20140;-81
2024/03/04 10:15:12;;;;;;;5.47;1.90;;;;;;;20.16;33.52;91787.81;2071919;69;20229;-80
2024/03/04 10:17:38;;;;;;;7.15;1.60;;;;;;;19.78;32.40;91809.53;2068561;69;20168;-80
2024/03/04 10:20:09;;;;;;;5.70;1.65;;;;;;;19.75;32.83;91804.50;2071923;69;20584;-81
2024/03/04 10:22:38;;;;;;;5.63;2.10;;;;;;;19.13;33.13;91799.34;2065797;69;20143;-81
2024/03/04 10:25:06;;;;;;;4.25;1.35;;;;;;;19.96;33.07;91799.75;2071941;69;20136;-80
2024/03/04 10:27:33;;;;;;;4.18;1.77;;;;;;;20.39;31.88;91798.09;2068597;69;20257;-81
2024/03/04 10:30:16;;;;;;;4.68;1.20;;;;;;;21.62;30.28;91794.06;2068439;69;20272;-79
2024/03/04 10:32:50;;;;;;;5.03;1.40;;;;;;;22.02;29.21;91787.81;2071821;69;20216;-81
2024/03/04 10:35:18;;;;;;;5.15;1.27;;;;;;;21.97;29.67;91786.38;2071913;69;20133;-79
2024/03/04 10:37:47;;;;;;;4.55;1.33;;;;;;;22.56;29.83;91786.56;2071549;69;20235;-79
2024/03/04 10:40:13;;;;;;;7.65;1.58;;;;;;;23.09;27.88;91785.91;2071780;69;20239;-80
2024/03/04 10:42:40;;;;;;;4.78;1.40;;;;;;;22.90;28.68;91778.75;2071974;69;20156;-79
2024/03/04 10:45:07;;;;;;;11.57;1.92;;;;;;;23.95;28.62;91785.78;2068214;69;20156;-80
2024/03/04 10:47:33;;;;;;;5.53;1.60;;;;;;;25.05;27.13;91790.97;2071678;69;20251;-80
2024/03/04 10:50:04;;;;;;;3.67;1.45;;;;;;;22.47;29.18;91788.00;2071702;69;20583;-80
2024/03/04 10:52:30;;;;;;;6.53;1.27;;;;;;;23.26;29.35;91784.47;2071849;69;20144;-79
2024/03/04 10:54:56;;;;;;;5.43;1.50;;;;;;;26.13;25.99;91783.53;2071776;69;20243;-82
2024/03/04 10:57:30;;;;;;;7.07;1.90;;;;;;;26.61;26.07;91785.09;2071466;69;20160;-80
2024/03/04 10:59:57;;;;;;;7.72;1.50;;;;;;;27.39;25.24;91783.97;2068131;69;20285;-79
2024/03/04 11:02:48;;;;;;;10.63;2.28;;;;;;;27.18;24.33;91780.72;2068421;69;20600;-79
2024/03/04 11:05:16;;;;;;;8.95;1.75;;;;;;;27.89;23.41;91784.59;2068193;69;20648;-80
2024/03/04 11:11:35;;;;;;;8.07;1.70;;;;;;;28.05;24.21;91772.72;2074965;69;20254;-78
2024/03/04 11:14:09;;;;;;;4.57;1.48;;;;;;;27.49;23.91;91766.47;2074083;69;20136;-78
2024/03/04 11:16:45;;;;;;;5.30;1.30;;;;;;;27.32;23.68;91768.91;2072284;69;20665;-79
2024/03/04 11:19:11;;;;;;;5.00;1.30;;;;;;;30.32;21.99;91768.22;2071915;69;20176;-81
2024/03/04 11:21:40;;;;;;;6.57;1.27;;;;;;;30.06;22.53;91775.44;2071798;69;20213;-82
2024/03/04 11:24:09;;;;;;;8.10;1.48;;;;;;;29.83;22.43;91770.22;2071615;69;20139;-80
2024/03/04 11:26:37;;;;;;;3.28;1.13;;;;;;;31.70;20.72;91760.41;2071853;69;20144;-79
2024/03/04 11:29:04;;;;;;;3.75;1.50;;;;;;;32.02;20.91;91766.66;2071682;69;20231;-79
2024/03/04 11:31:33;;;;;;;4.57;1.23;;;;;;;31.96;20.82;91769.78;2068311;69;20165;-80
2024/03/04 11:34:03;;;;;;;4.70;1.20;;;;;;;33.46;18.43;91768.69;2071644;69;20162;-79
2024/03/04 11:36:29;;;;;;;6.03;1.40;;;;;;;33.36;19.03;91758.13;2071639;69;20152;-80
2024/03/04 11:38:57;;;;;;;2.97;0.90;;;;;;;36.93;17.98;91759.25;2071763;69;20155;-82
2024/03/04 11:41:44;;;;;;;8.68;1.42;;;;;;;37.20;18.05;91769.53;2071712;69;20164;-80
2024/03/04 11:44:10;;;;;;;5.32;1.30;;;;;;;38.24;18.54;91763.72;2071693;69;20159;-80
2024/03/04 11:46:38;;;;;;;5.50;1.33;;;;;;;38.60;18.37;91760.88;2068327;69;20151;-79
2024/03/04 11:49:26;;;;;;;4.82;1.30;;;;;;;39.58;17.20;91772.53;2071585;69;20227;-79
2024/03/04 11:52:18;;;;;;;6.88;1.10;;;;;;;40.36;16.38;91759.38;2071755;69;20148;-81